createdAt,value
2023-01-19T00:01:03.654Z,-0.46
2023-01-19T00:06:14.218Z,-0.44
2023-01-19T00:11:22.151Z,-0.41
2023-01-19T00:16:29.768Z,-0.47
2023-01-19T00:21:37.465Z,-0.48
2023-01-19T00:26:45.178Z,-0.43
2023-01-19T00:31:52.712Z,-0.41
2023-01-19T00:37:02.178Z,-0.44
2023-01-19T00:42:27.371Z,-0.44
2023-01-19T00:47:34.416Z,-0.35
2023-01-19T00:52:42.200Z,-0.25
2023-01-19T00:57:49.612Z,-0.28
2023-01-19T01:02:56.988Z,-0.30
2023-01-19T01:08:04.782Z,-0.22
2023-01-19T01:18:51.579Z,-0.23
2023-01-19T01:23:59.585Z,-0.23
2023-01-19T01:29:08.689Z,-0.24
2023-01-19T01:34:16.863Z,-0.27
2023-01-19T01:39:24.351Z,-0.27
2023-01-19T01:44:52.942Z,-0.30
2023-01-19T01:50:07.990Z,-0.28
2023-01-19T01:55:18.038Z,-0.28
2023-01-19T02:00:27.214Z,-0.29
2023-01-19T02:05:37.969Z,-0.22
2023-01-19T02:11:04.422Z,-0.12
2023-01-19T02:16:13.696Z,-0.10
2023-01-19T02:21:25.352Z,-0.15
2023-01-19T02:26:36.548Z,-0.10
2023-01-19T02:31:45.683Z,-0.05
2023-01-19T02:36:58.049Z,-0.08
2023-01-19T02:42:09.613Z,-0.09
2023-01-19T02:47:17.522Z,-0.09
2023-01-19T02:52:25.305Z,-0.13
2023-01-19T02:57:48.871Z,-0.17
2023-01-19T03:03:11.855Z,-0.19
2023-01-19T03:08:32.579Z,-0.17
2023-01-19T03:13:47.096Z,-0.15
2023-01-19T03:18:56.835Z,-0.13
2023-01-19T03:24:07.624Z,-0.09
2023-01-19T03:29:17.680Z,-0.06
2023-01-19T03:34:26.161Z,-0.02
2023-01-19T03:39:35.490Z,0.03
2023-01-19T03:44:50.764Z,0.08
2023-01-19T03:49:59.797Z,0.12
2023-01-19T03:55:09.972Z,0.20
2023-01-19T04:00:19.026Z,0.33
2023-01-19T04:05:28.456Z,0.43
2023-01-19T04:10:36.632Z,0.51
2023-01-19T04:15:43.795Z,0.60
2023-01-19T04:20:51.826Z,0.67
2023-01-19T04:26:03.045Z,0.73
2023-01-19T04:31:10.676Z,0.74
2023-01-19T04:36:18.554Z,0.68
2023-01-19T04:41:26.182Z,0.71
2023-01-19T04:46:33.706Z,0.71
2023-01-19T04:51:41.491Z,0.63
2023-01-19T04:56:49.486Z,0.48
2023-01-19T05:01:57.459Z,0.34
2023-01-19T05:07:04.838Z,0.24
2023-01-19T05:12:12.901Z,0.26
2023-01-19T05:17:20.156Z,0.34
2023-01-19T05:22:27.958Z,0.39
2023-01-19T05:27:35.607Z,0.43
2023-01-19T05:32:43.296Z,0.51
2023-01-19T05:37:51.206Z,0.62
2023-01-19T05:43:01.498Z,0.66
2023-01-19T05:48:10.688Z,0.67
2023-01-19T05:53:18.145Z,0.74
2023-01-19T05:58:25.821Z,0.78
2023-01-19T06:03:33.873Z,0.80
2023-01-19T06:08:41.895Z,0.87
2023-01-19T06:13:49.262Z,0.95
2023-01-19T06:18:56.558Z,1.00
2023-01-19T06:24:02.120Z,1.00
2023-01-19T06:29:10.272Z,1.02
2023-01-19T06:34:17.490Z,1.01
2023-01-19T06:39:23.797Z,1.00
2023-01-19T06:44:30.868Z,1.00
2023-01-19T06:49:36.543Z,1.00
2023-01-19T06:54:45.245Z,0.97
2023-01-19T06:59:52.909Z,0.89
2023-01-19T07:05:00.666Z,0.77
2023-01-19T07:10:11.900Z,0.58
2023-01-19T07:15:23.042Z,0.49
2023-01-19T07:20:30.566Z,0.47
2023-01-19T07:25:38.612Z,0.45
2023-01-19T07:30:46.498Z,0.38
2023-01-19T07:35:54.611Z,0.31
2023-01-19T07:41:06.316Z,0.29
2023-01-19T07:46:13.816Z,0.27
2023-01-19T07:51:21.301Z,0.27
2023-01-19T07:56:28.082Z,0.33
2023-01-19T08:01:35.875Z,0.45
2023-01-19T08:06:47.036Z,0.54
2023-01-19T08:11:54.314Z,0.62
2023-01-19T08:17:02.346Z,0.67
2023-01-19T08:22:09.681Z,0.70
2023-01-19T08:27:16.843Z,0.72
2023-01-19T08:32:22.516Z,0.75
2023-01-19T08:37:29.934Z,0.81
2023-01-19T08:42:37.217Z,0.84
2023-01-19T08:47:44.434Z,0.85
2023-01-19T08:52:50.004Z,0.86
2023-01-19T08:58:01.275Z,0.85
2023-01-19T09:03:09.956Z,0.85
2023-01-19T09:08:17.952Z,0.82
2023-01-19T09:13:25.894Z,0.77
2023-01-19T09:18:33.777Z,0.70
2023-01-19T09:23:41.298Z,0.67
2023-01-19T09:28:48.731Z,0.66
2023-01-19T09:33:56.144Z,0.67
2023-01-19T09:39:03.636Z,0.64
2023-01-19T09:44:18.803Z,0.60
2023-01-19T09:49:32.949Z,0.60
2023-01-19T09:54:48.518Z,0.60
2023-01-19T09:59:59.965Z,0.60
2023-01-19T10:05:16.395Z,0.61
2023-01-19T10:10:27.400Z,0.59
2023-01-19T10:15:44.131Z,0.55
2023-01-19T10:20:57.094Z,0.56
2023-01-19T10:26:11.613Z,0.57
2023-01-19T10:31:23.880Z,0.56
2023-01-19T10:36:38.510Z,0.54
2023-01-19T10:41:50.328Z,0.57
2023-01-19T10:46:59.959Z,0.58
2023-01-19T10:52:10.069Z,0.58
2023-01-19T10:57:28.051Z,0.60
2023-01-19T11:02:36.356Z,0.64
2023-01-19T11:07:43.818Z,0.69
2023-01-19T11:13:03.305Z,0.71
2023-01-19T11:18:24.431Z,0.74
2023-01-19T11:23:34.856Z,0.73
2023-01-19T11:28:45.168Z,0.72
2023-01-19T11:33:55.314Z,0.75
2023-01-19T11:39:22.203Z,0.75
2023-01-19T11:44:33.908Z,0.77
2023-01-19T11:49:45.721Z,0.77
2023-01-19T11:55:02.400Z,0.77
2023-01-19T12:00:25.199Z,0.82
2023-01-19T12:05:36.318Z,0.86
2023-01-19T12:10:46.441Z,0.93
2023-01-19T12:15:59.057Z,0.95
2023-01-19T12:21:07.179Z,0.96
2023-01-19T12:26:39.071Z,0.95
2023-01-19T12:31:46.391Z,0.97
2023-01-19T12:36:57.279Z,1.02
2023-01-19T12:42:21.482Z,1.05
2023-01-19T12:47:28.876Z,1.02
2023-01-19T12:52:41.828Z,0.96
2023-01-19T12:57:57.908Z,0.93
2023-01-19T13:03:27.335Z,0.96
2023-01-19T13:09:03.412Z,0.95
2023-01-19T13:14:37.822Z,0.84
2023-01-19T13:19:56.258Z,0.75
2023-01-19T13:25:13.236Z,0.70
2023-01-19T13:30:27.297Z,0.64
2023-01-19T13:35:35.053Z,0.62
2023-01-19T13:40:44.487Z,0.60
2023-01-19T13:45:53.722Z,0.56
2023-01-19T13:51:06.482Z,0.51
2023-01-19T13:56:25.713Z,0.50
2023-01-19T14:01:34.015Z,0.49
2023-01-19T14:06:49.710Z,0.45
2023-01-19T14:12:14.113Z,0.44
2023-01-19T14:17:26.055Z,0.43
2023-01-19T14:22:47.145Z,0.42
2023-01-19T14:28:14.564Z,0.34
2023-01-19T14:33:36.092Z,0.30
2023-01-19T14:50:20.110Z,0.10
2023-01-19T14:55:33.185Z,0.02
2023-01-19T15:00:41.291Z,0.00
2023-01-19T15:05:51.019Z,-0.03
2023-01-19T15:11:00.000Z,-0.05
2023-01-19T15:16:10.153Z,-0.07
2023-01-19T15:21:21.830Z,-0.08
2023-01-19T15:26:30.422Z,-0.10
2023-01-19T15:31:39.089Z,-0.11
2023-01-19T15:36:47.029Z,-0.10
2023-01-19T15:41:54.589Z,-0.10
2023-01-19T15:47:03.245Z,-0.11
2023-01-19T15:52:11.574Z,-0.13
2023-01-19T15:57:19.581Z,-0.14
2023-01-19T16:02:27.425Z,-0.15
2023-01-19T16:07:36.385Z,-0.17
2023-01-19T16:12:44.773Z,-0.17
2023-01-19T16:17:53.374Z,-0.14
2023-01-19T16:23:17.011Z,-0.13
2023-01-19T16:28:24.795Z,-0.15
2023-01-19T16:33:31.420Z,-0.16
2023-01-19T16:38:38.863Z,-0.16
2023-01-19T16:43:51.033Z,-0.19
2023-01-19T16:49:05.831Z,-0.22
2023-01-19T16:54:16.204Z,-0.24
2023-01-19T16:59:24.876Z,-0.25
2023-01-19T17:04:33.962Z,-0.25
2023-01-19T17:09:41.586Z,-0.26
2023-01-19T17:14:49.593Z,-0.23
2023-01-19T17:19:57.002Z,-0.19
2023-01-19T17:25:04.819Z,-0.16
2023-01-19T17:30:15.347Z,-0.15
2023-01-19T17:35:23.215Z,-0.19
2023-01-19T17:40:31.480Z,-0.21
2023-01-19T17:45:39.811Z,-0.23
2023-01-19T17:50:47.285Z,-0.22
2023-01-19T17:55:55.184Z,-0.21
2023-01-19T18:01:11.863Z,-0.23
2023-01-19T18:06:19.861Z,-0.24
2023-01-19T18:11:28.393Z,-0.25
2023-01-19T18:16:36.464Z,-0.24
2023-01-19T18:21:43.860Z,-0.21
2023-01-19T18:26:53.717Z,-0.20
2023-01-19T18:32:02.818Z,-0.20
2023-01-19T18:37:08.439Z,-0.20
2023-01-19T18:42:15.673Z,-0.21
2023-01-19T18:47:22.883Z,-0.20
2023-01-19T18:52:32.541Z,-0.18
2023-01-19T18:57:39.747Z,-0.17
2023-01-19T19:02:48.007Z,-0.18
2023-01-19T19:07:55.378Z,-0.20
2023-01-19T19:13:03.597Z,-0.22
2023-01-19T19:18:14.066Z,-0.22
2023-01-19T19:23:22.059Z,-0.17
2023-01-19T19:28:31.561Z,-0.14
2023-01-19T19:33:39.524Z,-0.16
2023-01-19T19:38:48.554Z,-0.20
2023-01-19T19:43:56.702Z,-0.23
2023-01-19T19:49:04.240Z,-0.24
2023-01-19T19:54:12.080Z,-0.23
2023-01-19T19:59:19.977Z,-0.26
2023-01-19T20:04:28.531Z,-0.26
2023-01-19T20:09:37.589Z,-0.25
2023-01-19T20:14:45.089Z,-0.28
2023-01-19T20:19:52.819Z,-0.27
2023-01-19T20:25:00.787Z,-0.22
2023-01-19T20:30:15.535Z,-0.23
2023-01-19T20:35:23.392Z,-0.28
2023-01-19T20:40:31.252Z,-0.34
2023-01-19T20:52:46.059Z,-0.31
2023-01-19T20:57:53.473Z,-0.34
2023-01-19T21:03:01.297Z,-0.37
2023-01-19T21:08:09.159Z,-0.39
2023-01-19T21:13:16.411Z,-0.42
2023-01-19T21:18:25.084Z,-0.45
2023-01-19T21:23:32.626Z,-0.45
2023-01-19T21:28:40.603Z,-0.44
2023-01-19T21:33:49.376Z,-0.45
2023-01-19T21:39:01.157Z,-0.47
2023-01-19T21:44:09.611Z,-0.48
2023-01-19T21:49:20.195Z,-0.48
2023-01-19T21:54:29.827Z,-0.47
2023-01-19T21:59:37.159Z,-0.45
2023-01-19T22:04:44.759Z,-0.46
2023-01-19T22:09:52.574Z,-0.47
2023-01-19T22:14:59.959Z,-0.48
2023-01-19T22:20:09.843Z,-0.49
2023-01-19T22:25:17.850Z,-0.46
2023-01-19T22:30:26.601Z,-0.41
2023-01-19T22:35:34.291Z,-0.40
2023-01-19T22:40:41.844Z,-0.42
2023-01-19T22:45:49.413Z,-0.44
2023-01-19T22:51:00.530Z,-0.45
2023-01-19T22:56:16.066Z,-0.42
2023-01-19T23:01:25.841Z,-0.38
2023-01-19T23:06:35.985Z,-0.38
2023-01-19T23:11:45.322Z,-0.39
2023-01-19T23:16:52.923Z,-0.41
2023-01-19T23:22:00.433Z,-0.41
2023-01-19T23:27:08.138Z,-0.38
2023-01-19T23:32:15.680Z,-0.36
2023-01-19T23:37:23.647Z,-0.38
2023-01-19T23:42:32.396Z,-0.40
2023-01-19T23:47:43.805Z,-0.40
2023-01-19T23:52:52.857Z,-0.43
2023-01-19T23:58:01.471Z,-0.45
